Terminal Aerodrome Forecast
Issued by NWS Charleston, WV

Current Version | Previous Version | Text Only | Print | Product List | Glossary Off
Versions: 1 2 3 4 5 6 7 8 9 10 11 12 13 14 15 16 17 18 19 20 21 22 23 24

000
FTUS41 KRLX 201700 RRA
TAFHTS
TAF
KHTS 201741Z 2018/2118 21008KT P6SM BKN060
     FM202300 22004KT P6SM BKN080
     FM210200 00000KT P6SM BKN045
     FM210400 VRB03KT P6SM BKN030
     FM210700 27004KT P6SM BKN040
     FM211600 30007KT P6SM BKN035
     FM211700 30007KT P6SM OVC030=

USA.gov is the U.S. government's official web portal to all federal, state and local government web resources and services.